Time;durP1;ratioP1;P1;durP2;ratioP2;P2;SDS_P1;SDS_P2;PMS_P1;PMS_P2;Temp;Humidity;BMP_temperature;BMP_pressure;BME280_temperature;BME280_humidity;BME280_pressure;Samples;Min_cycle;Max_cycle;Signal;HPM_P1;HPM_P2
2021/11/17 02:26:28;;;;;;;0.45;0.20;;;;;;;;;;5981181;24;20447;-88
2021/11/17 02:29:01;;;;;;;0.40;0.40;;;;;;;;;;6004744;23;20515;-88
2021/11/17 02:31:36;;;;;;;0.25;0.13;;;;;;;;;;5981225;24;20020;-87
2021/11/17 02:34:19;;;;;;;0.10;0.10;;;;;;;;;;5981036;24;20042;-88
2021/11/17 02:36:45;;;;;;;0.10;0.10;;;;;;;;;;5980839;24;20024;-89
2021/11/17 02:39:26;;;;;;;0.10;0.10;;;;;;;;;;5980960;24;20346;-89
2021/11/17 02:42:11;;;;;;;0.10;0.10;;;;;;;;;;5978199;24;20023;-88
2021/11/17 02:44:43;;;;;;;0.10;0.10;;;;;;;;;;5954687;24;20024;-88
2021/11/17 02:47:09;;;;;;;0.35;0.35;;;;;;;;;;5952687;24;20020;-89
2021/11/17 02:49:48;;;;;;;0.10;0.10;;;;;;;;;;5953082;24;20023;-89
2021/11/17 02:52:17;;;;;;;0.25;0.20;;;;;;;;;;5952895;24;20071;-89
2021/11/17 02:54:46;;;;;;;0.10;0.10;;;;;;;;;;5952667;24;20065;-89
2021/11/17 02:57:24;;;;;;;0.10;0.10;;;;;;;;;;5952840;24;20095;-88
2021/11/17 03:00:00;;;;;;;0.35;0.35;;;;;;;;;;5975836;24;20012;-88
2021/11/17 03:02:41;;;;;;;0.10;0.10;;;;;;;;;;5953535;24;20032;-88
2021/11/17 03:05:10;;;;;;;0.10;0.10;;;;;;;;;;5952813;24;20016;-88
2021/11/17 03:07:48;;;;;;;0.10;0.10;;;;;;;;;;5953053;24;20016;-89
2021/11/17 03:10:45;;;;;;;0.10;0.10;;;;;;;;;;5952863;24;20039;-89
2021/11/17 03:13:30;;;;;;;0.10;0.10;;;;;;;;;;5952147;24;20020;-88
2021/11/17 03:16:11;;;;;;;0.10;0.10;;;;;;;;;;5976146;24;20059;-89
2021/11/17 03:18:47;;;;;;;0.10;0.10;;;;;;;;;;5952806;24;20443;-88
2021/11/17 03:21:19;;;;;;;0.15;0.15;;;;;;;;;;5976092;24;20017;-88
2021/11/17 03:23:45;;;;;;;0.10;0.10;;;;;;;;;;5952957;24;20108;-88
2021/11/17 03:26:23;;;;;;;0.10;0.10;;;;;;;;;;5952682;24;20375;-89
2021/11/17 03:28:59;;;;;;;0.10;0.10;;;;;;;;;;5975990;24;20459;-88
2021/11/17 03:31:28;;;;;;;4.03;0.28;;;;;;;;;;5975825;24;20016;-87
2021/11/17 03:33:57;;;;;;;0.10;0.10;;;;;;;;;;5952429;24;20021;-88
2021/11/17 03:36:30;;;;;;;0.98;0.20;;;;;;;;;;5952400;24;20048;-88
2021/11/17 03:38:56;;;;;;;0.20;0.20;;;;;;;;;;5976329;24;20459;-89
2021/11/17 03:41:25;;;;;;;0.10;0.10;;;;;;;;;;5952397;24;20017;-88
2021/11/17 03:44:07;;;;;;;0.10;0.10;;;;;;;;;;5977853;24;20072;-88
2021/11/17 03:46:52;;;;;;;0.10;0.10;;;;;;;;;;5980508;24;20020;-88
2021/11/17 03:49:28;;;;;;;0.38;0.38;;;;;;;;;;5980302;24;20036;-89
2021/11/17 03:51:57;;;;;;;0.10;0.10;;;;;;;;;;6003718;23;20094;-88
2021/11/17 03:54:23;;;;;;;0.10;0.10;;;;;;;;;;5980504;24;20292;-88
2021/11/17 03:56:56;;;;;;;0.10;0.10;;;;;;;;;;5979927;24;20041;-88
2021/11/17 03:59:32;;;;;;;0.10;0.10;;;;;;;;;;5980220;24;20016;-88
2021/11/17 04:02:16;;;;;;;0.10;0.10;;;;;;;;;;5980142;24;20479;-88
2021/11/17 04:04:52;;;;;;;0.10;0.10;;;;;;;;;;5980152;24;20418;-87
2021/11/17 04:07:27;;;;;;;0.10;0.10;;;;;;;;;;5980075;24;20021;-88
2021/11/17 04:10:04;;;;;;;0.10;0.10;;;;;;;;;;5979822;24;20052;-87
2021/11/17 04:12:29;;;;;;;0.10;0.10;;;;;;;;;;6003014;23;20141;-87
2021/11/17 04:15:07;;;;;;;0.10;0.10;;;;;;;;;;5979783;24;20072;-87
2021/11/17 04:17:40;;;;;;;0.10;0.10;;;;;;;;;;5979825;24;20012;-88
2021/11/17 04:20:19;;;;;;;0.10;0.10;;;;;;;;;;5980178;24;20094;-88
2021/11/17 04:23:03;;;;;;;0.10;0.10;;;;;;;;;;5979910;24;20012;-88
2021/11/17 04:25:40;;;;;;;0.10;0.10;;;;;;;;;;5979793;24;20072;-87
2021/11/17 04:28:09;;;;;;;0.10;0.10;;;;;;;;;;5979886;24;20047;-87
2021/11/17 04:30:55;;;;;;;0.10;0.10;;;;;;;;;;5979546;24;20047;-87
2021/11/17 04:33:28;;;;;;;0.15;0.15;;;;;;;;;;5979603;24;20016;-87
2021/11/17 04:36:07;;;;;;;0.25;0.25;;;;;;;;;;5979872;24;20019;-87
2021/11/17 04:38:36;;;;;;;0.10;0.10;;;;;;;;;;5979426;24;20012;-87
2021/11/17 04:41:08;;;;;;;0.35;0.20;;;;;;;;;;5979786;24;20019;-87
2021/11/17 04:43:37;;;;;;;0.10;0.10;;;;;;;;;;5979363;24;20518;-86
2021/11/17 04:46:22;;;;;;;0.20;0.20;;;;;;;;;;5979722;24;20021;-87
2021/11/17 04:48:54;;;;;;;0.10;0.10;;;;;;;;;;5979666;24;20355;-86
2021/11/17 04:51:20;;;;;;;0.20;0.20;;;;;;;;;;5979788;24;20013;-87
2021/11/17 04:54:09;;;;;;;0.10;0.10;;;;;;;;;;5979938;24;20055;-87
2021/11/17 04:56:49;;;;;;;0.10;0.10;;;;;;;;;;5979547;24;20019;-88
2021/11/17 04:59:21;;;;;;;0.10;0.10;;;;;;;;;;6003100;23;20012;-87
2021/11/17 05:01:47;;;;;;;;;;;;;;;;;;6003674;23;20016;-88
2021/11/17 05:04:23;;;;;;;0.20;0.20;;;;;;;;;;6003120;23;19921;-89
2021/11/17 05:07:01;;;;;;;0.10;0.10;;;;;;;;;;5979616;24;20469;-87
2021/11/17 05:09:30;;;;;;;0.10;0.10;;;;;;;;;;5979564;24;20016;-87
2021/11/17 05:12:02;;;;;;;0.10;0.10;;;;;;;;;;5979794;24;20072;-87
2021/11/17 05:14:47;;;;;;;0.10;0.10;;;;;;;;;;5979408;24;20091;-87
2021/11/17 05:17:32;;;;;;;0.20;0.20;;;;;;;;;;5979672;24;20375;-87
2021/11/17 05:20:01;;;;;;;0.10;0.10;;;;;;;;;;5979456;24;20020;-87
2021/11/17 05:22:36;;;;;;;0.10;0.10;;;;;;;;;;5979472;24;20016;-86
2021/11/17 05:25:28;;;;;;;0.10;0.10;;;;;;;;;;5979709;24;20017;-86
2021/11/17 05:28:00;;;;;;;0.70;0.20;;;;;;;;;;5979683;24;20634;-87
2021/11/17 05:30:26;;;;;;;0.40;0.40;;;;;;;;;;5979730;24;20020;-87
2021/11/17 05:32:52;;;;;;;0.20;0.20;;;;;;;;;;5979502;24;20016;-88
2021/11/17 05:35:20;;;;;;;0.10;0.10;;;;;;;;;;5979386;24;20024;-88
2021/11/17 05:37:53;;;;;;;0.25;0.25;;;;;;;;;;5981203;24;20047;-88
2021/11/17 05:40:42;;;;;;;0.30;0.30;;;;;;;;;;6004468;23;20048;-87
2021/11/17 05:43:27;;;;;;;0.10;0.10;;;;;;;;;;5980633;23;20083;-88
2021/11/17 05:45:53;;;;;;;0.20;0.20;;;;;;;;;;5981539;24;20039;-88
2021/11/17 05:48:19;;;;;;;0.47;0.30;;;;;;;;;;5981655;24;20025;-88
2021/11/17 05:51:00;;;;;;;0.10;0.10;;;;;;;;;;5981356;24;20019;-88
2021/11/17 05:53:51;;;;;;;0.10;0.10;;;;;;;;;;6004849;23;20439;-89
2021/11/17 05:56:26;;;;;;;0.10;0.10;;;;;;;;;;5981424;24;20323;-88
2021/11/17 05:59:05;;;;;;;0.10;0.10;;;;;;;;;;5981490;24;20112;-88
2021/11/17 06:01:37;;;;;;;0.10;0.10;;;;;;;;;;5981727;24;20024;-87
2021/11/17 06:04:04;;;;;;;0.15;0.15;;;;;;;;;;5981211;24;20016;-87
2021/11/17 06:06:37;;;;;;;0.10;0.10;;;;;;;;;;5981091;24;20055;-87
2021/11/17 06:09:06;;;;;;;;;;;;;;;;;;5981902;24;20016;-88
2021/11/17 06:11:45;;;;;;;0.10;0.10;;;;;;;;;;5980970;24;19914;-88
2021/11/17 06:14:13;;;;;;;0.10;0.10;;;;;;;;;;5981071;24;20346;-87
2021/11/17 06:16:40;;;;;;;0.10;0.10;;;;;;;;;;6004421;23;20016;-87
2021/11/17 06:19:06;;;;;;;0.10;0.10;;;;;;;;;;6004456;23;20469;-87
2021/11/17 06:21:33;;;;;;;0.10;0.10;;;;;;;;;;6004570;23;20012;-87
2021/11/17 06:23:59;;;;;;;0.10;0.10;;;;;;;;;;5981023;24;20083;-87
2021/11/17 06:26:27;;;;;;;0.38;0.38;;;;;;;;;;6004281;23;20028;-87
2021/11/17 06:28:53;;;;;;;0.10;0.10;;;;;;;;;;5981091;24;20016;-87
2021/11/17 06:31:20;;;;;;;0.10;0.10;;;;;;;;;;6004296;23;20125;-86
2021/11/17 06:33:46;;;;;;;0.10;0.10;;;;;;;;;;5981159;24;20027;-88
2021/11/17 06:36:12;;;;;;;0.10;0.10;;;;;;;;;;5981173;24;20016;-88
2021/11/17 06:38:37;;;;;;;0.10;0.10;;;;;;;;;;5980881;24;20099;-87
2021/11/17 06:41:04;;;;;;;0.10;0.10;;;;;;;;;;5980871;24;20450;-87
2021/11/17 06:43:30;;;;;;;0.10;0.10;;;;;;;;;;5980698;24;20020;-87
2021/11/17 06:45:57;;;;;;;0.10;0.10;;;;;;;;;;6004188;23;20017;-87
2021/11/17 06:48:24;;;;;;;0.10;0.10;;;;;;;;;;5980205;24;20419;-87
2021/11/17 06:50:50;;;;;;;0.20;0.20;;;;;;;;;;6004293;23;20067;-87
2021/11/17 06:53:16;;;;;;;0.10;0.10;;;;;;;;;;6004492;23;20048;-87
2021/11/17 06:55:42;;;;;;;0.10;0.10;;;;;;;;;;6004179;23;20016;-87
2021/11/17 06:58:08;;;;;;;0.43;0.38;;;;;;;;;;5980447;24;20395;-89
2021/11/17 07:00:34;;;;;;;0.10;0.10;;;;;;;;;;5980803;24;20265;-88
2021/11/17 07:03:01;;;;;;;0.17;0.10;;;;;;;;;;6004206;23;20023;-94
2021/11/17 07:05:27;;;;;;;0.10;0.10;;;;;;;;;;5980689;24;20028;-85
2021/11/17 07:07:56;;;;;;;0.10;0.10;;;;;;;;;;6004196;23;20024;-84
2021/11/17 07:10:23;;;;;;;0.32;0.30;;;;;;;;;;5980934;24;20020;-84
2021/11/17 07:12:49;;;;;;;0.20;0.10;;;;;;;;;;5980665;24;20088;-84
2021/11/17 07:15:16;;;;;;;0.20;0.20;;;;;;;;;;5980670;24;20080;-84
2021/11/17 07:17:42;;;;;;;0.10;0.10;;;;;;;;;;5980537;24;20012;-83
2021/11/17 07:20:08;;;;;;;0.10;0.10;;;;;;;;;;5980499;24;20342;-86
2021/11/17 07:22:34;;;;;;;0.10;0.10;;;;;;;;;;5980425;24;20012;-86
2021/11/17 07:25:00;;;;;;;0.20;0.20;;;;;;;;;;5980509;24;20071;-86
2021/11/17 07:27:26;;;;;;;0.10;0.10;;;;;;;;;;6003722;23;20027;-85
2021/11/17 07:29:54;;;;;;;0.20;0.20;;;;;;;;;;6003912;23;20026;-85
2021/11/17 07:32:21;;;;;;;0.10;0.10;;;;;;;;;;5981085;24;20088;-85
2021/11/17 07:34:47;;;;;;;0.10;0.10;;;;;;;;;;6003793;23;20016;-87
2021/11/17 07:37:13;;;;;;;0.10;0.10;;;;;;;;;;6003883;23;20087;-87
2021/11/17 07:39:39;;;;;;;0.17;0.17;;;;;;;;;;5980496;24;20017;-86
2021/11/17 07:42:05;;;;;;;0.10;0.10;;;;;;;;;;5979969;24;20020;-87
2021/11/17 07:44:31;;;;;;;0.45;0.30;;;;;;;;;;5980427;24;20360;-87
2021/11/17 07:46:57;;;;;;;0.10;0.10;;;;;;;;;;5980380;24;20020;-87
2021/11/17 07:49:24;;;;;;;0.30;0.30;;;;;;;;;;5980229;24;20515;-87
2021/11/17 07:51:50;;;;;;;0.10;0.10;;;;;;;;;;5980486;24;20311;-88
2021/11/17 07:54:17;;;;;;;0.10;0.10;;;;;;;;;;6003686;23;20027;-88
2021/11/17 07:56:43;;;;;;;0.00;0.00;;;;;;;;;;5980088;24;20024;-87
2021/11/17 07:59:10;;;;;;;0.20;0.20;;;;;;;;;;6003524;23;20012;-87
2021/11/17 08:01:36;;;;;;;0.10;0.10;;;;;;;;;;6003374;23;20016;-88
2021/11/17 08:04:02;;;;;;;0.10;0.10;;;;;;;;;;5980324;24;20020;-88
2021/11/17 08:06:29;;;;;;;0.10;0.10;;;;;;;;;;6003425;23;20028;-88
2021/11/17 08:08:55;;;;;;;0.10;0.10;;;;;;;;;;5980324;24;20159;-87
2021/11/17 08:11:21;;;;;;;0.10;0.10;;;;;;;;;;5980570;24;20020;-86
2021/11/17 08:13:47;;;;;;;0.10;0.10;;;;;;;;;;6003396;23;20019;-87
2021/11/17 08:16:13;;;;;;;0.10;0.10;;;;;;;;;;5980083;24;20320;-85
2021/11/17 08:18:39;;;;;;;0.10;0.10;;;;;;;;;;5979924;24;20117;-86
2021/11/17 08:21:05;;;;;;;0.10;0.10;;;;;;;;;;5980414;24;20035;-85
2021/11/17 08:23:31;;;;;;;0.47;0.47;;;;;;;;;;5980037;24;20016;-85
2021/11/17 08:25:57;;;;;;;0.10;0.10;;;;;;;;;;5979782;24;20016;-85
2021/11/17 08:28:23;;;;;;;0.10;0.10;;;;;;;;;;5980170;24;20087;-85
2021/11/17 08:30:49;;;;;;;0.10;0.10;;;;;;;;;;5980015;24;20304;-85
2021/11/17 08:33:15;;;;;;;0.10;0.10;;;;;;;;;;5979933;24;20043;-86
2021/11/17 08:35:42;;;;;;;0.10;0.10;;;;;;;;;;5980043;24;20458;-86
2021/11/17 08:38:09;;;;;;;0.10;0.10;;;;;;;;;;5979823;24;20016;-85
2021/11/17 08:40:45;;;;;;;0.10;0.10;;;;;;;;;;6003498;23;20332;-85
2021/11/17 08:43:11;;;;;;;0.17;0.17;;;;;;;;;;6003136;23;20020;-85
2021/11/17 08:45:39;;;;;;;0.65;0.28;;;;;;;;;;5979912;24;20030;-86
2021/11/17 08:48:05;;;;;;;0.10;0.10;;;;;;;;;;6003536;23;20399;-85
2021/11/17 08:50:32;;;;;;;0.20;0.20;;;;;;;;;;6003269;23;20023;-84
2021/11/17 08:52:58;;;;;;;0.10;0.10;;;;;;;;;;6003255;23;20028;-85
2021/11/17 08:55:25;;;;;;;0.70;0.70;;;;;;;;;;5980081;24;20028;-86
2021/11/17 08:57:51;;;;;;;0.10;0.10;;;;;;;;;;5978019;24;20099;-86
2021/11/17 09:00:18;;;;;;;2.33;0.25;;;;;;;;;;6003189;23;20051;-86
2021/11/17 09:02:45;;;;;;;0.10;0.10;;;;;;;;;;5978281;24;20040;-86
2021/11/17 09:05:13;;;;;;;0.55;0.22;;;;;;;;;;6003441;23;20016;-85
2021/11/17 09:07:40;;;;;;;0.10;0.10;;;;;;;;;;6002705;23;20020;-86
2021/11/17 09:10:07;;;;;;;0.20;0.20;;;;;;;;;;5980150;24;20038;-86
2021/11/17 09:12:33;;;;;;;0.63;0.20;;;;;;;;;;5981069;24;20016;-86
2021/11/17 09:14:58;;;;;;;0.10;0.10;;;;;;;;;;5981760;24;20095;-86
2021/11/17 09:17:26;;;;;;;0.10;0.10;;;;;;;;;;5981631;24;20012;-86
2021/11/17 09:19:53;;;;;;;0.10;0.10;;;;;;;;;;5981619;24;20076;-86
2021/11/17 09:22:19;;;;;;;0.10;0.10;;;;;;;;;;5981599;24;20501;-86
2021/11/17 09:24:45;;;;;;;0.10;0.10;;;;;;;;;;5981599;24;20016;-86
2021/11/17 09:27:11;;;;;;;0.35;0.20;;;;;;;;;;5981496;24;20016;-86
2021/11/17 09:29:37;;;;;;;0.10;0.10;;;;;;;;;;5981619;24;20319;-86
2021/11/17 09:32:03;;;;;;;0.10;0.10;;;;;;;;;;5981570;24;20096;-87
2021/11/17 09:34:29;;;;;;;0.10;0.10;;;;;;;;;;5981730;24;20024;-86
2021/11/17 09:36:55;;;;;;;0.10;0.10;;;;;;;;;;5981442;24;20074;-87
2021/11/17 09:39:21;;;;;;;0.10;0.10;;;;;;;;;;5981603;24;20051;-87
2021/11/17 09:41:49;;;;;;;0.10;0.10;;;;;;;;;;5981387;24;20087;-86
2021/11/17 09:44:16;;;;;;;0.22;0.22;;;;;;;;;;5981746;24;20027;-84
2021/11/17 09:46:43;;;;;;;0.10;0.10;;;;;;;;;;6004736;23;20016;-84
2021/11/17 09:49:38;;;;;;;0.00;0.00;;;;;;;;;;6004902;23;20087;-84
2021/11/17 09:52:09;;;;;;;0.10;0.10;;;;;;;;;;5981121;24;20469;-83
2021/11/17 09:54:40;;;;;;;0.10;0.10;;;;;;;;;;5981298;24;20047;-85
2021/11/17 09:57:08;;;;;;;0.10;0.10;;;;;;;;;;5981224;24;20458;-84
2021/11/17 09:59:42;;;;;;;0.57;0.15;;;;;;;;;;5981086;24;20016;-85
2021/11/17 10:02:09;;;;;;;1.85;0.57;;;;;;;;;;5981345;24;20039;-84
2021/11/17 10:04:40;;;;;;;0.15;0.15;;;;;;;;;;5981224;24;20199;-83
2021/11/17 10:08:02;;;;;;;0.10;0.10;;;;;;;;;;6004916;23;20020;-84
2021/11/17 10:13:03;;;;;;;0.52;0.35;;;;;;;;;;5981457;24;20027;-86
2021/11/17 10:15:31;;;;;;;0.10;0.10;;;;;;;;;;5981135;24;20023;-84
2021/11/17 10:17:58;;;;;;;0.00;0.00;;;;;;;;;;5981394;24;20023;-86
2021/11/17 10:20:33;;;;;;;0.30;0.10;;;;;;;;;;6004546;23;20018;-85
2021/11/17 10:23:05;;;;;;;0.10;0.10;;;;;;;;;;5981031;24;20016;-85
2021/11/17 10:25:39;;;;;;;0.52;0.15;;;;;;;;;;5981307;24;20387;-86
2021/11/17 10:28:05;;;;;;;0.10;0.10;;;;;;;;;;5981536;24;20020;-87
2021/11/17 10:30:34;;;;;;;0.10;0.10;;;;;;;;;;6014913;23;20031;-85
2021/11/17 10:33:03;;;;;;;0.10;0.10;;;;;;;;;;6027971;23;20103;-84
2021/11/17 10:35:30;;;;;;;0.10;0.10;;;;;;;;;;5983959;24;20020;-85
2021/11/17 10:38:01;;;;;;;0.10;0.10;;;;;;;;;;5980878;24;20016;-86
2021/11/17 10:40:28;;;;;;;0.10;0.10;;;;;;;;;;5981003;24;20098;-86
2021/11/17 10:43:01;;;;;;;0.10;0.10;;;;;;;;;;5981104;24;20025;-86
2021/11/17 10:45:30;;;;;;;0.20;0.20;;;;;;;;;;5980868;24;20024;-85
2021/11/17 10:47:56;;;;;;;0.10;0.10;;;;;;;;;;5981016;24;20058;-86
2021/11/17 10:50:37;;;;;;;0.10;0.10;;;;;;;;;;5980937;24;20020;-86
2021/11/17 10:53:05;;;;;;;0.10;0.10;;;;;;;;;;6004371;23;20414;-86
2021/11/17 10:55:50;;;;;;;0.10;0.10;;;;;;;;;;5980737;24;20359;-85
2021/11/17 10:58:18;;;;;;;0.20;0.20;;;;;;;;;;6003804;23;20487;-85
2021/11/17 11:00:51;;;;;;;0.10;0.10;;;;;;;;;;5989335;24;20036;-86
2021/11/17 11:03:17;;;;;;;0.10;0.10;;;;;;;;;;5982065;24;20060;-87
2021/11/17 11:05:48;;;;;;;0.10;0.10;;;;;;;;;;6004159;23;20324;-85
2021/11/17 11:08:32;;;;;;;0.10;0.10;;;;;;;;;;5980505;24;20094;-85
2021/11/17 11:10:59;;;;;;;0.10;0.10;;;;;;;;;;5980581;24;20028;-85
2021/11/17 11:13:27;;;;;;;0.10;0.10;;;;;;;;;;5980683;24;20039;-86
2021/11/17 11:15:55;;;;;;;0.10;0.10;;;;;;;;;;5980476;24;20027;-85
2021/11/17 11:18:21;;;;;;;0.43;0.43;;;;;;;;;;5980324;24;20022;-86
2021/11/17 11:20:47;;;;;;;0.10;0.10;;;;;;;;;;5980402;24;20091;-86
2021/11/17 11:23:26;;;;;;;0.10;0.10;;;;;;;;;;5980206;24;20027;-86
2021/11/17 11:25:58;;;;;;;0.10;0.10;;;;;;;;;;6003785;23;20016;-86
2021/11/17 11:28:42;;;;;;;0.10;0.10;;;;;;;;;;5980201;24;20461;-86
2021/11/17 11:31:09;;;;;;;0.10;0.10;;;;;;;;;;6003585;23;20051;-85
2021/11/17 11:33:36;;;;;;;0.55;0.50;;;;;;;;;;5979703;24;20016;-86
2021/11/17 11:36:11;;;;;;;0.10;0.10;;;;;;;;;;5980167;24;20020;-86
2021/11/17 11:38:38;;;;;;;0.10;0.10;;;;;;;;;;6003469;23;20012;-85
2021/11/17 11:41:07;;;;;;;0.35;0.35;;;;;;;;;;5979894;24;20072;-85
2021/11/17 11:43:33;;;;;;;0.10;0.10;;;;;;;;;;5979995;24;20076;-85
2021/11/17 11:46:18;;;;;;;0.10;0.10;;;;;;;;;;5980124;24;20020;-86
2021/11/17 11:48:44;;;;;;;0.10;0.10;;;;;;;;;;6003688;23;20020;-85
2021/11/17 11:51:22;;;;;;;0.10;0.10;;;;;;;;;;5980177;24;20043;-85
2021/11/17 11:53:48;;;;;;;0.10;0.10;;;;;;;;;;5979978;24;20026;-86
2021/11/17 11:56:21;;;;;;;0.10;0.10;;;;;;;;;;5979984;24;20518;-86
2021/11/17 11:58:48;;;;;;;0.10;0.10;;;;;;;;;;6003509;23;20072;-86
2021/11/17 12:01:17;;;;;;;0.30;0.30;;;;;;;;;;6003507;23;20064;-86
2021/11/17 12:03:48;;;;;;;0.10;0.10;;;;;;;;;;5979922;24;20392;-86
2021/11/17 12:06:19;;;;;;;0.10;0.10;;;;;;;;;;5979839;24;20063;-85
2021/11/17 12:08:45;;;;;;;0.10;0.10;;;;;;;;;;5979913;24;20568;-86
2021/11/17 12:11:16;;;;;;;0.10;0.10;;;;;;;;;;5979856;24;20016;-86
2021/11/17 12:13:44;;;;;;;0.10;0.10;;;;;;;;;;5979838;24;20068;-86
2021/11/17 12:16:15;;;;;;;0.10;0.10;;;;;;;;;;5980055;24;20016;-86
2021/11/17 12:18:53;;;;;;;0.10;0.10;;;;;;;;;;6003243;23;20473;-87
2021/11/17 12:21:30;;;;;;;0.10;0.10;;;;;;;;;;5979747;24;20016;-86
2021/11/17 12:24:04;;;;;;;0.10;0.10;;;;;;;;;;5980246;24;20044;-86
2021/11/17 12:26:34;;;;;;;0.38;0.30;;;;;;;;;;5979772;24;20012;-86
2021/11/17 12:29:04;;;;;;;1.20;0.30;;;;;;;;;;6003518;23;20016;-86
2021/11/17 12:32:03;;;;;;;0.10;0.10;;;;;;;;;;5979907;24;20020;-91
2021/11/17 12:34:35;;;;;;;0.28;0.28;;;;;;;;;;5979468;24;20088;-87
2021/11/17 12:37:05;;;;;;;0.20;0.20;;;;;;;;;;5980014;24;20016;-85
2021/11/17 12:39:32;;;;;;;0.10;0.10;;;;;;;;;;5980082;24;20111;-87
2021/11/17 12:41:59;;;;;;;0.10;0.10;;;;;;;;;;5979854;24;20088;-86
2021/11/17 12:44:27;;;;;;;0.10;0.10;;;;;;;;;;5980272;24;20099;-86
2021/11/17 12:47:05;;;;;;;0.10;0.10;;;;;;;;;;5979411;24;20020;-89
2021/11/17 12:49:39;;;;;;;0.20;0.20;;;;;;;;;;6003543;23;20354;-86
2021/11/17 12:52:22;;;;;;;0.10;0.10;;;;;;;;;;5979941;24;20103;-86
2021/11/17 12:54:50;;;;;;;0.10;0.10;;;;;;;;;;5979788;24;20051;-86
2021/11/17 12:57:22;;;;;;;0.10;0.10;;;;;;;;;;5979844;24;20048;-86
2021/11/17 12:59:50;;;;;;;0.20;0.20;;;;;;;;;;5979946;24;20344;-86
2021/11/17 13:02:22;;;;;;;0.10;0.10;;;;;;;;;;5980021;24;20024;-86
2021/11/17 13:04:50;;;;;;;0.10;0.10;;;;;;;;;;5979845;24;20099;-87
2021/11/17 13:07:30;;;;;;;0.10;0.10;;;;;;;;;;6003154;23;20094;-86
2021/11/17 13:09:58;;;;;;;0.10;0.10;;;;;;;;;;5980183;24;20327;-86
2021/11/17 13:12:28;;;;;;;0.20;0.20;;;;;;;;;;5980048;24;20088;-86
2021/11/17 13:14:59;;;;;;;0.10;0.10;;;;;;;;;;5979722;24;20021;-87
2021/11/17 13:17:26;;;;;;;0.10;0.10;;;;;;;;;;5979775;24;20073;-86
2021/11/17 13:19:56;;;;;;;0.10;0.10;;;;;;;;;;5979866;24;20406;-86
2021/11/17 13:22:22;;;;;;;0.10;0.10;;;;;;;;;;5979770;24;20023;-85
2021/11/17 13:24:49;;;;;;;0.52;0.52;;;;;;;;;;5979953;24;20088;-86
2021/11/17 13:27:21;;;;;;;0.10;0.10;;;;;;;;;;5979701;24;20020;-86
2021/11/17 13:29:57;;;;;;;0.10;0.10;;;;;;;;;;6003587;23;20020;-86
2021/11/17 13:32:39;;;;;;;0.10;0.10;;;;;;;;;;5979783;24;20020;-86
2021/11/17 13:35:24;;;;;;;0.10;0.10;;;;;;;;;;5979625;24;20099;-86
2021/11/17 13:37:50;;;;;;;0.10;0.10;;;;;;;;;;5979569;24;20240;-86
2021/11/17 13:40:21;;;;;;;0.10;0.10;;;;;;;;;;5979862;24;20048;-86
2021/11/17 13:42:47;;;;;;;0.10;0.10;;;;;;;;;;5979555;24;20028;-86
2021/11/17 13:45:14;;;;;;;0.10;0.10;;;;;;;;;;5979729;24;20188;-87
2021/11/17 13:47:40;;;;;;;0.10;0.10;;;;;;;;;;5979894;24;20031;-86
2021/11/17 13:50:06;;;;;;;0.10;0.10;;;;;;;;;;6003240;23;20017;-86
2021/11/17 13:52:33;;;;;;;0.10;0.10;;;;;;;;;;6003418;23;20016;-87
2021/11/17 13:55:00;;;;;;;0.10;0.10;;;;;;;;;;6003136;23;20121;-87
2021/11/17 13:57:26;;;;;;;0.10;0.10;;;;;;;;;;6003379;23;20522;-86
2021/11/17 13:59:52;;;;;;;0.10;0.10;;;;;;;;;;5981350;24;20009;-87
2021/11/17 14:02:18;;;;;;;0.10;0.10;;;;;;;;;;5981719;24;20387;-86
2021/11/17 14:04:44;;;;;;;0.17;0.17;;;;;;;;;;5981198;24;20020;-86
2021/11/17 14:07:12;;;;;;;0.10;0.10;;;;;;;;;;6004552;23;20020;-87
2021/11/17 14:09:38;;;;;;;0.20;0.20;;;;;;;;;;5980993;24;20129;-86
2021/11/17 14:12:06;;;;;;;0.10;0.10;;;;;;;;;;5981362;24;20131;-86
2021/11/17 14:14:32;;;;;;;0.20;0.20;;;;;;;;;;6004703;23;20477;-86
2021/11/17 14:16:58;;;;;;;0.10;0.10;;;;;;;;;;5981122;24;20020;-86
2021/11/17 14:19:24;;;;;;;0.10;0.10;;;;;;;;;;6004612;23;20416;-87
2021/11/17 14:21:50;;;;;;;0.10;0.10;;;;;;;;;;5981257;24;20077;-86
2021/11/17 14:24:16;;;;;;;0.10;0.10;;;;;;;;;;5981148;24;20080;-86
2021/11/17 14:26:43;;;;;;;0.10;0.10;;;;;;;;;;5980971;24;20463;-86
2021/11/17 14:29:10;;;;;;;0.10;0.10;;;;;;;;;;5981027;24;20431;-86
2021/11/17 14:31:38;;;;;;;0.10;0.10;;;;;;;;;;5981069;24;20119;-86
2021/11/17 14:34:04;;;;;;;0.10;0.10;;;;;;;;;;5981148;24;20020;-86
2021/11/17 14:36:34;;;;;;;0.10;0.10;;;;;;;;;;5980901;24;20111;-86
2021/11/17 14:39:03;;;;;;;0.10;0.10;;;;;;;;;;5981288;24;20035;-86
2021/11/17 14:41:29;;;;;;;0.10;0.10;;;;;;;;;;6004249;23;20023;-86
2021/11/17 14:43:54;;;;;;;0.10;0.10;;;;;;;;;;5980734;24;20091;-86
2021/11/17 14:46:20;;;;;;;0.10;0.10;;;;;;;;;;5980739;24;20024;-86
2021/11/17 14:48:46;;;;;;;0.10;0.10;;;;;;;;;;5980774;24;20023;-86
2021/11/17 14:51:12;;;;;;;0.10;0.10;;;;;;;;;;5980935;24;20334;-86
2021/11/17 14:53:43;;;;;;;0.10;0.10;;;;;;;;;;6004162;23;20117;-86
2021/11/17 14:56:09;;;;;;;0.10;0.10;;;;;;;;;;5981012;24;20091;-87
2021/11/17 14:58:35;;;;;;;0.10;0.10;;;;;;;;;;5981021;24;20023;-86
2021/11/17 15:01:02;;;;;;;0.10;0.10;;;;;;;;;;5981750;24;20072;-86
2021/11/17 15:03:27;;;;;;;0.10;0.10;;;;;;;;;;5982105;24;20427;-86
2021/11/17 15:05:53;;;;;;;0.10;0.10;;;;;;;;;;5987082;24;20008;-86
2021/11/17 15:08:19;;;;;;;0.10;0.10;;;;;;;;;;6005965;24;20020;-86
2021/11/17 15:10:46;;;;;;;0.10;0.10;;;;;;;;;;6017116;23;20399;-87
2021/11/17 15:13:12;;;;;;;0.10;0.10;;;;;;;;;;5980704;24;20023;-86
2021/11/17 15:15:42;;;;;;;0.10;0.10;;;;;;;;;;6004017;23;20030;-86
2021/11/17 15:18:08;;;;;;;0.10;0.10;;;;;;;;;;6004007;23;20346;-85
2021/11/17 15:20:34;;;;;;;0.10;0.10;;;;;;;;;;5980682;24;20048;-86
2021/11/17 15:23:00;;;;;;;0.10;0.10;;;;;;;;;;5980675;24;20438;-86
2021/11/17 15:25:28;;;;;;;0.10;0.10;;;;;;;;;;5980579;24;20091;-86
2021/11/17 15:27:55;;;;;;;0.10;0.10;;;;;;;;;;5980499;24;20020;-86
2021/11/17 15:30:22;;;;;;;0.10;0.10;;;;;;;;;;6004209;23;20043;-86
2021/11/17 15:32:49;;;;;;;0.10;0.10;;;;;;;;;;6004171;23;20028;-86
2021/11/17 15:35:15;;;;;;;0.10;0.10;;;;;;;;;;6003510;23;20051;-86
2021/11/17 15:37:43;;;;;;;0.10;0.10;;;;;;;;;;5980195;24;20458;-86
2021/11/17 15:40:12;;;;;;;0.10;0.10;;;;;;;;;;6003903;23;20041;-86
2021/11/17 15:42:38;;;;;;;0.10;0.10;;;;;;;;;;5980594;24;20043;-87
2021/11/17 15:45:04;;;;;;;0.10;0.10;;;;;;;;;;5980343;24;20102;-87
2021/11/17 15:47:30;;;;;;;0.10;0.10;;;;;;;;;;6003936;23;20518;-86
2021/11/17 15:49:57;;;;;;;0.10;0.10;;;;;;;;;;6003716;23;20047;-86
2021/11/17 15:52:22;;;;;;;0.10;0.10;;;;;;;;;;6003899;23;20357;-87
2021/11/17 15:54:48;;;;;;;0.10;0.10;;;;;;;;;;5980165;24;20111;-86
2021/11/17 15:57:15;;;;;;;0.10;0.10;;;;;;;;;;5979977;24;20368;-86
2021/11/17 15:59:40;;;;;;;0.10;0.10;;;;;;;;;;6003957;23;20028;-86
2021/11/17 16:02:06;;;;;;;0.10;0.10;;;;;;;;;;5980357;24;20031;-88
2021/11/17 16:04:32;;;;;;;0.10;0.10;;;;;;;;;;6003495;23;20102;-86
2021/11/17 16:07:09;;;;;;;0.10;0.10;;;;;;;;;;6003507;23;20020;-86
2021/11/17 16:09:36;;;;;;;0.10;0.10;;;;;;;;;;6003475;23;20075;-86
2021/11/17 16:12:03;;;;;;;0.10;0.10;;;;;;;;;;5979900;24;20020;-87
2021/11/17 16:14:29;;;;;;;0.10;0.10;;;;;;;;;;5980144;24;20066;-86
2021/11/17 16:16:55;;;;;;;0.10;0.10;;;;;;;;;;5980067;24;20446;-86
2021/11/17 16:19:21;;;;;;;0.10;0.10;;;;;;;;;;5979914;24;20584;-86
2021/11/17 16:21:48;;;;;;;0.30;0.30;;;;;;;;;;5978337;24;20043;-85
2021/11/17 16:26:59;;;;;;;0.10;0.10;;;;;;;;;;5979133;24;20027;-84
2021/11/17 16:29:25;;;;;;;0.10;0.10;;;;;;;;;;5979531;24;20023;-85
2021/11/17 16:31:51;;;;;;;0.10;0.10;;;;;;;;;;5979790;24;20020;-85
2021/11/17 16:34:17;;;;;;;0.03;0.03;;;;;;;;;;5979642;24;20031;-86
2021/11/17 16:36:44;;;;;;;0.10;0.10;;;;;;;;;;5979323;24;20041;-85
2021/11/17 16:39:10;;;;;;;0.10;0.10;;;;;;;;;;6003068;23;20023;-86
2021/11/17 16:41:37;;;;;;;0.10;0.10;;;;;;;;;;5979305;24;20091;-85
2021/11/17 16:44:03;;;;;;;0.10;0.10;;;;;;;;;;5979550;24;20024;-85
2021/11/17 16:46:29;;;;;;;0.10;0.10;;;;;;;;;;5978304;24;20107;-85
2021/11/17 16:48:56;;;;;;;0.00;0.00;;;;;;;;;;5980071;24;20028;-85
2021/11/17 16:51:23;;;;;;;0.10;0.10;;;;;;;;;;5979211;24;20020;-85
2021/11/17 16:53:48;;;;;;;0.10;0.10;;;;;;;;;;5979516;24;20020;-85
2021/11/17 16:56:14;;;;;;;0.10;0.10;;;;;;;;;;5979202;24;20012;-85
2021/11/17 16:58:41;;;;;;;0.10;0.10;;;;;;;;;;5979609;24;20450;-86
2021/11/17 17:01:07;;;;;;;0.10;0.10;;;;;;;;;;6003193;23;20087;-86
2021/11/17 17:03:34;;;;;;;0.10;0.10;;;;;;;;;;5979631;24;20048;-86
2021/11/17 17:06:05;;;;;;;0.10;0.10;;;;;;;;;;5979580;24;20051;-86
2021/11/17 17:08:32;;;;;;;0.10;0.10;;;;;;;;;;5979392;24;20023;-85
2021/11/17 17:10:58;;;;;;;0.10;0.10;;;;;;;;;;5979284;24;20031;-85
2021/11/17 17:13:24;;;;;;;0.10;0.10;;;;;;;;;;5979388;24;20303;-86
2021/11/17 17:15:50;;;;;;;0.10;0.10;;;;;;;;;;5979410;24;20080;-86
2021/11/17 17:18:18;;;;;;;0.10;0.10;;;;;;;;;;5979540;24;20016;-87
2021/11/17 17:20:45;;;;;;;0.10;0.10;;;;;;;;;;5979622;24;20400;-85
2021/11/17 17:23:12;;;;;;;0.10;0.10;;;;;;;;;;5979662;24;20113;-86
2021/11/17 17:25:41;;;;;;;0.10;0.10;;;;;;;;;;5979559;24;20462;-86
2021/11/17 17:28:09;;;;;;;0.10;0.10;;;;;;;;;;5979135;24;20392;-85
2021/11/17 17:30:35;;;;;;;0.10;0.10;;;;;;;;;;5979500;24;20057;-84